FYGB

Gobabis Airport

Gobabis, Namibia
METAR FYGB 231400Z AUTO 17006KT //// // ////// 35/08 Q1012
Observed Flight Rules
Feb-23 @ 14:00 UTC (29 minutes ago)
Wind
170° at 6 knots
Temperatures Readings
Current 35°C / 95°F
Dewpoint 8°C / 46°F
Humidity 19%
Altimeter 29.88" Hg
Pressure 1012 hPa
Elevation 1442
METAR FYGB 231400Z AUTO 17006KT //// // ////// 35/08 Q1012
Observed Flight Rules
Feb-23 @ 14:00 UTC
(29 minutes ago)
Wind
170° at 6 knots
Temperature Dewpoint
35°C / 95°F 8°C / 46°F
Humidity Altimeter Pressure
19% 29.88" Hg 1012 hPa